createdAt,value
2018-11-11T00:00:11.805Z,61.08
2018-11-11T00:02:40.588Z,61.06
2018-11-11T00:05:10.206Z,60.92
2018-11-11T00:07:39.099Z,61.36
2018-11-11T00:10:23.377Z,60.98
2018-11-11T00:12:51.804Z,61.41
2018-11-11T00:15:20.258Z,61.21
2018-11-11T00:17:48.703Z,61.34
2018-11-11T00:20:17.292Z,61.53
2018-11-11T00:22:45.692Z,60.88
2018-11-11T00:25:14.074Z,61.43
2018-11-11T00:27:42.651Z,61.48
2018-11-11T00:30:15.713Z,61.20
2018-11-11T00:32:44.149Z,61.02
2018-11-11T00:35:12.589Z,61.49
2018-11-11T00:37:41.158Z,61.31
2018-11-11T00:40:11.369Z,61.45
2018-11-11T00:42:39.830Z,60.99
2018-11-11T00:45:09.167Z,61.00
2018-11-11T00:47:37.747Z,60.95
2018-11-11T00:50:07.837Z,60.54
2018-11-11T00:52:36.506Z,61.39
2018-11-11T00:55:07.526Z,61.58
2018-11-11T00:57:39.968Z,60.84
2018-11-11T01:00:18.155Z,60.92
2018-11-11T01:02:46.980Z,61.06
2018-11-11T01:05:15.659Z,61.39
2018-11-11T01:07:44.637Z,60.84
2018-11-11T01:10:14.821Z,61.25
2018-11-11T01:12:43.676Z,61.17
2018-11-11T01:15:13.577Z,61.25
2018-11-11T01:17:42.165Z,61.20
2018-11-11T01:20:12.079Z,61.06
2018-11-11T01:22:40.523Z,60.59
2018-11-11T01:25:11.280Z,61.16
2018-11-11T01:27:39.758Z,60.45
2018-11-11T01:30:08.600Z,60.49
2018-11-11T01:32:37.556Z,60.86
2018-11-11T01:35:09.429Z,60.70
2018-11-11T01:37:38.034Z,60.83
2018-11-11T01:40:07.475Z,60.63
2018-11-11T01:42:35.868Z,60.48
2018-11-11T01:45:05.062Z,60.46
2018-11-11T01:47:33.563Z,60.77
2018-11-11T01:50:02.011Z,60.38
2018-11-11T01:52:30.376Z,60.97
2018-11-11T01:54:58.854Z,60.76
2018-11-11T01:57:27.274Z,60.15
2018-11-11T01:59:55.796Z,60.63
2018-11-11T02:02:30.572Z,60.16
2018-11-11T02:04:58.989Z,60.08
2018-11-11T02:07:27.588Z,60.45
2018-11-11T02:09:56.051Z,60.46
2018-11-11T02:12:24.409Z,60.47
2018-11-11T02:14:52.847Z,60.61
2018-11-11T02:17:21.304Z,60.07
2018-11-11T02:19:49.935Z,60.28
2018-11-11T02:22:18.590Z,60.38
2018-11-11T02:24:47.062Z,60.67
2018-11-11T02:27:15.610Z,60.35
2018-11-11T02:29:44.013Z,60.03
2018-11-11T02:32:12.547Z,60.12
2018-11-11T02:34:40.952Z,60.57
2018-11-11T02:37:09.340Z,60.39
2018-11-11T02:39:37.709Z,60.25
2018-11-11T02:42:06.284Z,60.43
2018-11-11T02:44:34.637Z,59.96
2018-11-11T02:47:03.085Z,60.18
2018-11-11T02:49:31.465Z,60.34
2018-11-11T02:51:59.995Z,60.53
2018-11-11T02:54:39.909Z,59.98
2018-11-11T02:57:08.284Z,60.03
2018-11-11T02:59:37.530Z,60.17
2018-11-11T03:02:06.032Z,60.34
2018-11-11T03:04:34.475Z,60.52
2018-11-11T03:07:04.040Z,60.58
2018-11-11T03:09:32.445Z,60.85
2018-11-11T03:12:00.899Z,60.57
2018-11-11T03:14:30.285Z,60.14
2018-11-11T03:16:58.673Z,60.29
2018-11-11T03:19:27.178Z,60.31
2018-11-11T03:21:55.568Z,61.07
2018-11-11T03:24:23.987Z,60.26
2018-11-11T03:26:52.526Z,60.67
2018-11-11T03:29:20.906Z,60.63
2018-11-11T03:31:49.320Z,60.91
2018-11-11T03:34:17.757Z,60.54
2018-11-11T03:36:46.246Z,60.32
2018-11-11T03:39:14.691Z,60.80
2018-11-11T03:41:43.076Z,60.77
2018-11-11T03:44:11.599Z,60.69
2018-11-11T03:46:39.991Z,61.08
2018-11-11T03:49:08.719Z,60.92
2018-11-11T03:51:38.188Z,60.78
2018-11-11T03:54:06.617Z,61.28
2018-11-11T03:56:35.018Z,60.76
2018-11-11T03:59:03.640Z,61.35
2018-11-11T04:01:32.056Z,61.23
2018-11-11T04:04:00.843Z,61.03
2018-11-11T04:15:51.160Z,61.51
2018-11-11T04:18:19.716Z,60.86
2018-11-11T04:20:48.168Z,60.94
2018-11-11T04:23:16.685Z,61.25
2018-11-11T04:25:45.307Z,61.15
2018-11-11T04:28:13.706Z,61.51
2018-11-11T04:30:42.349Z,61.36
2018-11-11T04:33:10.758Z,61.22
2018-11-11T04:35:39.758Z,61.07
2018-11-11T04:38:08.165Z,61.44
2018-11-11T04:40:36.627Z,61.35
2018-11-11T04:43:05.336Z,61.39
2018-11-11T04:45:33.774Z,62.08
2018-11-11T04:48:02.269Z,61.63
2018-11-11T04:50:30.845Z,61.59
2018-11-11T04:52:59.230Z,62.10
2018-11-11T04:55:27.842Z,62.10
2018-11-11T04:57:56.270Z,62.13
2018-11-11T05:00:24.871Z,61.94
2018-11-11T05:02:53.411Z,61.78
2018-11-11T05:05:21.844Z,61.79
2018-11-11T05:07:50.454Z,62.08
2018-11-11T05:10:18.909Z,62.09
2018-11-11T05:12:47.501Z,62.17
2018-11-11T05:15:15.961Z,61.70
2018-11-11T05:17:44.333Z,62.29
2018-11-11T05:20:13.338Z,61.93
2018-11-11T05:22:42.649Z,61.89
2018-11-11T05:25:12.792Z,62.14
2018-11-11T05:27:41.622Z,61.94
2018-11-11T05:30:11.779Z,62.38
2018-11-11T05:32:40.704Z,62.52
2018-11-11T05:35:10.064Z,62.56
2018-11-11T05:37:39.510Z,62.92
2018-11-11T05:40:09.090Z,62.44
2018-11-11T05:42:37.932Z,62.30
2018-11-11T05:45:07.593Z,63.07
2018-11-11T05:47:36.088Z,62.70
2018-11-11T05:50:06.240Z,63.00
2018-11-11T05:52:35.289Z,63.07
2018-11-11T05:55:04.006Z,62.90
2018-11-11T05:57:32.898Z,62.84
2018-11-11T06:00:01.429Z,62.89
2018-11-11T06:02:30.069Z,63.05
2018-11-11T06:04:58.605Z,63.19
2018-11-11T06:07:27.223Z,63.25
2018-11-11T06:09:55.660Z,62.49
2018-11-11T06:12:24.301Z,63.07
2018-11-11T06:14:52.710Z,63.26
2018-11-11T06:17:22.131Z,63.09
2018-11-11T06:19:50.572Z,62.90
2018-11-11T06:22:19.097Z,63.77
2018-11-11T06:24:47.695Z,63.39
2018-11-11T06:27:16.819Z,63.61
2018-11-11T06:29:45.535Z,63.47
2018-11-11T06:32:14.042Z,63.62
2018-11-11T06:34:42.545Z,63.44
2018-11-11T06:37:11.148Z,62.91
2018-11-11T06:39:41.013Z,63.06
2018-11-11T06:42:09.432Z,63.57
2018-11-11T06:44:37.906Z,62.78
2018-11-11T06:47:06.459Z,63.37
2018-11-11T06:49:34.846Z,63.20
2018-11-11T06:52:03.309Z,62.98
2018-11-11T06:54:31.829Z,63.66
2018-11-11T06:57:00.229Z,63.06
2018-11-11T06:59:28.773Z,63.47
2018-11-11T07:01:57.330Z,63.15
2018-11-11T07:04:25.864Z,63.63
2018-11-11T07:06:54.321Z,63.94
2018-11-11T07:09:23.146Z,63.67
2018-11-11T07:11:51.871Z,63.12
2018-11-11T07:14:20.228Z,63.50
2018-11-11T07:16:48.638Z,63.57
2018-11-11T07:19:17.016Z,63.36
2018-11-11T07:21:45.643Z,63.45
2018-11-11T07:24:14.192Z,63.73
2018-11-11T07:26:42.568Z,63.13
2018-11-11T07:29:11.078Z,63.25
2018-11-11T07:31:40.512Z,63.26
2018-11-11T07:34:08.920Z,63.02
2018-11-11T07:36:37.502Z,63.78
2018-11-11T07:39:10.980Z,63.36
2018-11-11T07:41:41.099Z,63.13
2018-11-11T07:44:09.469Z,63.43
2018-11-11T07:46:38.257Z,63.63
2018-11-11T07:49:06.823Z,63.24
2018-11-11T07:51:35.602Z,63.39
2018-11-11T07:54:04.364Z,63.37
2018-11-11T07:56:32.889Z,63.63
2018-11-11T07:59:01.710Z,62.89
2018-11-11T08:01:30.323Z,63.36
2018-11-11T08:03:59.305Z,62.86
2018-11-11T08:06:27.735Z,62.91
2018-11-11T08:08:56.123Z,62.83
2018-11-11T08:11:42.022Z,62.88
2018-11-11T08:14:10.572Z,62.87
2018-11-11T08:16:39.108Z,62.53
2018-11-11T08:19:07.793Z,62.68
2018-11-11T08:21:36.357Z,62.60
2018-11-11T08:24:05.405Z,62.28
2018-11-11T08:26:33.804Z,62.42
2018-11-11T08:29:02.261Z,62.15
2018-11-11T08:31:31.092Z,61.86
2018-11-11T08:33:59.518Z,62.05
2018-11-11T08:36:28.043Z,62.06
2018-11-11T08:38:56.461Z,62.62
2018-11-11T08:41:25.629Z,62.22
2018-11-11T08:43:54.350Z,61.83
2018-11-11T08:46:22.751Z,61.91
2018-11-11T08:48:51.237Z,62.10
2018-11-11T08:51:20.109Z,62.17
2018-11-11T08:53:48.595Z,62.24
2018-11-11T08:56:17.067Z,62.75
2018-11-11T08:58:45.661Z,62.19
2018-11-11T09:01:14.051Z,61.84
2018-11-11T09:03:43.428Z,62.27
2018-11-11T09:06:11.891Z,62.35
2018-11-11T09:08:40.614Z,61.86
2018-11-11T09:11:09.077Z,62.37
2018-11-11T09:13:37.808Z,62.59
2018-11-11T09:16:06.457Z,62.33
2018-11-11T09:18:35.065Z,61.75
2018-11-11T09:21:04.198Z,62.14
2018-11-11T09:23:32.830Z,62.16
2018-11-11T09:26:01.350Z,61.75
2018-11-11T09:28:30.007Z,62.30
2018-11-11T09:30:58.392Z,61.71
2018-11-11T09:33:27.252Z,62.12
2018-11-11T09:35:55.925Z,61.83
2018-11-11T09:38:24.361Z,62.32
2018-11-11T09:40:53.027Z,62.26
2018-11-11T09:43:21.688Z,61.76
2018-11-11T09:45:50.710Z,61.58
2018-11-11T09:48:19.091Z,61.50
2018-11-11T09:50:47.520Z,61.87
2018-11-11T09:53:15.984Z,61.73
2018-11-11T09:55:45.114Z,61.74
2018-11-11T09:58:13.552Z,62.03
2018-11-11T10:00:42.717Z,61.97
2018-11-11T10:03:21.947Z,61.25
2018-11-11T10:06:55.068Z,61.38
2018-11-11T10:09:34.788Z,60.90
2018-11-11T10:14:14.061Z,61.74
2018-11-11T10:16:48.710Z,60.83
2018-11-11T10:19:35.844Z,60.22
2018-11-11T10:22:41.161Z,60.71
2018-11-11T10:25:26.051Z,59.72
2018-11-11T10:28:07.128Z,60.05
2018-11-11T10:30:54.045Z,59.51
2018-11-11T10:33:38.398Z,59.91
2018-11-11T10:36:12.712Z,59.82
2018-11-11T10:38:54.533Z,59.02
2018-11-11T10:41:30.044Z,58.28
2018-11-11T10:44:04.484Z,58.60
2018-11-11T10:47:09.948Z,58.20
2018-11-11T10:49:43.046Z,57.36
2018-11-11T10:52:12.094Z,57.43
2018-11-11T10:54:40.639Z,57.25
2018-11-11T10:57:10.084Z,56.65
2018-11-11T10:59:38.724Z,56.92
2018-11-11T11:02:12.864Z,56.40
2018-11-11T11:04:47.142Z,56.04
2018-11-11T11:07:19.561Z,55.98
2018-11-11T11:09:48.653Z,55.77
2018-11-11T11:12:17.326Z,55.20
2018-11-11T11:14:45.724Z,55.62
2018-11-11T11:17:14.500Z,55.42
2018-11-11T11:19:42.938Z,55.18
2018-11-11T11:22:11.645Z,54.35
2018-11-11T11:24:40.203Z,54.77
2018-11-11T11:27:08.654Z,54.35
2018-11-11T11:29:37.226Z,54.32
2018-11-11T11:32:05.960Z,53.16
2018-11-11T11:34:34.382Z,53.12
2018-11-11T11:37:03.417Z,52.96
2018-11-11T11:39:31.951Z,52.22
2018-11-11T11:42:00.398Z,51.56
2018-11-11T11:44:28.892Z,50.56
2018-11-11T11:46:57.293Z,51.21
2018-11-11T11:49:25.867Z,51.00
2018-11-11T11:51:54.539Z,51.34
2018-11-11T11:54:22.916Z,51.86
2018-11-11T11:56:51.318Z,52.19
2018-11-11T11:59:19.780Z,51.88
2018-11-11T12:01:48.245Z,52.53
2018-11-11T12:04:16.750Z,51.94
2018-11-11T12:06:45.181Z,52.30
2018-11-11T12:09:14.007Z,52.12
2018-11-11T12:11:42.496Z,52.23
2018-11-11T12:14:10.941Z,52.29
2018-11-11T12:16:39.676Z,51.72
2018-11-11T12:19:08.055Z,51.68
2018-11-11T12:21:37.832Z,51.58
2018-11-11T12:24:06.394Z,51.07
2018-11-11T12:26:34.954Z,51.07
2018-11-11T12:29:03.707Z,51.02
2018-11-11T12:31:32.538Z,50.74
2018-11-11T12:34:05.462Z,50.40
2018-11-11T12:36:34.027Z,50.69
2018-11-11T12:39:03.247Z,50.33
2018-11-11T12:41:31.986Z,50.13
2018-11-11T12:44:00.439Z,48.96
2018-11-11T12:46:28.818Z,49.89
2018-11-11T12:48:57.429Z,49.18
2018-11-11T12:51:26.066Z,48.43
2018-11-11T12:53:54.515Z,48.54
2018-11-11T12:56:23.179Z,47.54
2018-11-11T12:58:51.625Z,47.57
2018-11-11T13:01:20.023Z,47.89
2018-11-11T13:03:48.720Z,47.91
2018-11-11T13:06:17.261Z,47.13
2018-11-11T13:08:59.921Z,47.08
2018-11-11T13:11:28.501Z,47.28
2018-11-11T13:13:57.151Z,47.60
2018-11-11T13:16:25.896Z,47.67
2018-11-11T13:18:54.438Z,47.19
2018-11-11T13:21:22.924Z,47.98
2018-11-11T13:23:51.313Z,46.96
2018-11-11T13:26:19.688Z,47.38
2018-11-11T13:28:48.406Z,46.84
2018-11-11T13:31:17.028Z,46.82
2018-11-11T13:33:45.475Z,46.82
2018-11-11T13:36:14.459Z,45.70
2018-11-11T13:38:43.043Z,45.45
2018-11-11T13:41:11.678Z,45.62
2018-11-11T13:43:40.071Z,44.81
2018-11-11T13:46:08.929Z,45.31
2018-11-11T13:48:37.583Z,45.13
2018-11-11T13:51:06.057Z,44.27
2018-11-11T13:53:34.677Z,44.93
2018-11-11T13:56:03.283Z,45.14
2018-11-11T13:58:31.840Z,44.58
2018-11-11T14:01:00.237Z,44.37
2018-11-11T14:03:29.089Z,44.39
2018-11-11T14:05:57.686Z,44.41
2018-11-11T14:08:26.298Z,43.81
2018-11-11T14:10:55.088Z,44.34
2018-11-11T14:13:23.559Z,44.19
2018-11-11T14:15:52.020Z,44.56
2018-11-11T14:18:20.615Z,43.58
2018-11-11T14:20:49.193Z,43.98
2018-11-11T14:23:17.693Z,43.89
2018-11-11T14:25:46.284Z,44.15
2018-11-11T14:28:14.920Z,44.22
2018-11-11T14:30:43.478Z,44.17
2018-11-11T14:33:11.930Z,43.78
2018-11-11T14:35:40.375Z,43.15
2018-11-11T14:38:08.876Z,42.60
2018-11-11T14:40:37.397Z,42.90
2018-11-11T14:43:05.947Z,43.19
2018-11-11T14:45:34.515Z,42.86
2018-11-11T14:48:04.268Z,42.15
2018-11-11T14:50:32.817Z,43.00
2018-11-11T14:53:01.741Z,43.24
2018-11-11T14:55:30.728Z,42.75
2018-11-11T14:58:00.155Z,42.88
2018-11-11T15:03:14.708Z,42.70
2018-11-11T15:05:43.354Z,43.76
2018-11-11T15:08:11.896Z,43.41
2018-11-11T15:10:41.713Z,43.26
2018-11-11T15:13:11.650Z,43.47
2018-11-11T15:15:40.536Z,44.10
2018-11-11T15:18:09.214Z,44.49
2018-11-11T15:20:38.953Z,44.21
2018-11-11T15:23:08.227Z,43.89
2018-11-11T15:25:39.761Z,44.92
2018-11-11T15:28:08.362Z,45.12
2018-11-11T15:30:37.880Z,44.83
2018-11-11T15:33:07.068Z,45.52
2018-11-11T15:35:35.737Z,45.90
2018-11-11T15:38:05.169Z,45.90
2018-11-11T15:40:36.084Z,46.01
2018-11-11T15:43:05.357Z,45.78
2018-11-11T15:45:34.760Z,45.76
2018-11-11T15:48:04.201Z,46.54
2018-11-11T15:50:34.353Z,45.98
2018-11-11T15:53:05.166Z,46.09
2018-11-11T15:55:35.798Z,46.99
2018-11-11T15:58:05.328Z,46.83
2018-11-11T16:00:36.124Z,47.27
2018-11-11T16:03:05.892Z,47.12
2018-11-11T16:05:35.411Z,46.96
2018-11-11T16:08:04.104Z,47.23
2018-11-11T16:10:33.459Z,47.60
2018-11-11T16:13:02.006Z,47.75
2018-11-11T16:15:32.670Z,47.71
2018-11-11T16:18:09.563Z,47.27
2018-11-11T16:20:38.262Z,47.45
2018-11-11T16:23:07.848Z,48.24
2018-11-11T16:25:36.593Z,47.59
2018-11-11T16:28:05.551Z,47.89
2018-11-11T16:30:35.403Z,48.48
2018-11-11T16:33:04.970Z,48.20
2018-11-11T16:35:33.500Z,48.52
2018-11-11T16:38:02.500Z,48.39
2018-11-11T16:40:33.458Z,49.04
2018-11-11T16:43:02.501Z,49.35
2018-11-11T16:45:33.037Z,48.83
2018-11-11T16:48:01.698Z,49.18
2018-11-11T16:50:32.183Z,49.47
2018-11-11T16:53:02.283Z,49.93
2018-11-11T16:55:31.877Z,49.73
2018-11-11T16:58:00.846Z,50.16
2018-11-11T17:00:30.824Z,50.13
2018-11-11T17:03:00.426Z,49.72
2018-11-11T17:05:30.340Z,49.73
2018-11-11T17:07:58.972Z,50.02
2018-11-11T17:10:28.974Z,50.61
2018-11-11T17:12:59.217Z,50.97
2018-11-11T17:15:29.636Z,50.77
2018-11-11T17:17:58.104Z,51.04
2018-11-11T17:20:26.961Z,50.59
2018-11-11T17:23:03.525Z,51.20
2018-11-11T17:25:32.017Z,51.42
2018-11-11T17:28:00.603Z,51.43
2018-11-11T17:30:30.308Z,51.48
2018-11-11T17:32:59.566Z,51.73
2018-11-11T17:35:28.777Z,51.14
2018-11-11T17:37:57.410Z,51.96
2018-11-11T17:40:27.789Z,51.58
2018-11-11T17:42:57.143Z,52.06
2018-11-11T17:45:25.954Z,52.16
2018-11-11T17:47:54.914Z,51.66
2018-11-11T17:50:27.956Z,51.94
2018-11-11T17:52:56.873Z,52.19
2018-11-11T17:55:26.431Z,52.70
2018-11-11T17:57:55.428Z,52.12
2018-11-11T18:00:25.594Z,52.65
2018-11-11T18:02:54.741Z,53.11
2018-11-11T18:05:24.576Z,53.23
2018-11-11T18:07:53.705Z,53.01
2018-11-11T18:10:23.203Z,52.93
2018-11-11T18:12:52.269Z,52.72
2018-11-11T18:15:23.422Z,53.33
2018-11-11T18:17:53.191Z,53.17
2018-11-11T18:20:23.932Z,52.89
2018-11-11T18:22:53.765Z,52.97
2018-11-11T18:25:22.414Z,53.27
2018-11-11T18:27:52.632Z,53.96
2018-11-11T18:30:27.389Z,53.83
2018-11-11T18:32:56.237Z,53.42
2018-11-11T18:35:24.693Z,53.55
2018-11-11T18:37:53.972Z,54.13
2018-11-11T18:40:24.193Z,53.96
2018-11-11T18:42:52.910Z,53.75
2018-11-11T18:45:26.507Z,54.16
2018-11-11T18:47:55.171Z,54.49
2018-11-11T18:50:28.072Z,54.12
2018-11-11T18:52:57.205Z,53.90
2018-11-11T18:55:26.237Z,54.27
2018-11-11T18:57:54.835Z,54.89
2018-11-11T19:00:25.897Z,54.48
2018-11-11T19:02:55.383Z,54.35
2018-11-11T19:05:24.715Z,54.69
2018-11-11T19:07:54.351Z,54.77
2018-11-11T19:10:25.632Z,54.37
2018-11-11T19:12:55.768Z,54.91
2018-11-11T19:15:24.573Z,55.22
2018-11-11T19:17:54.362Z,54.76
2018-11-11T19:20:24.243Z,54.64
2018-11-11T19:22:53.875Z,55.26
2018-11-11T19:25:24.328Z,54.69
2018-11-11T19:27:55.639Z,55.27
2018-11-11T19:30:25.739Z,54.90
2018-11-11T19:32:54.392Z,55.69
2018-11-11T19:35:23.071Z,55.38
2018-11-11T19:37:54.913Z,55.49
2018-11-11T19:40:25.383Z,55.56
2018-11-11T19:42:55.263Z,55.84
2018-11-11T19:45:25.017Z,55.74
2018-11-11T19:47:54.848Z,55.89
2018-11-11T19:50:24.534Z,55.54
2018-11-11T19:52:54.665Z,55.31
2018-11-11T19:55:23.501Z,55.93
2018-11-11T19:57:52.660Z,55.73
2018-11-11T20:00:25.468Z,55.71
2018-11-11T20:02:54.778Z,56.05
2018-11-11T20:05:23.552Z,55.63
2018-11-11T20:07:53.824Z,55.93
2018-11-11T20:10:23.290Z,56.44
2018-11-11T20:12:52.126Z,56.21
2018-11-11T20:15:22.932Z,55.94
2018-11-11T20:17:51.620Z,56.59
2018-11-11T20:20:22.476Z,56.34
2018-11-11T20:22:51.009Z,56.63
2018-11-11T20:25:20.234Z,56.22
2018-11-11T20:27:49.193Z,56.61
2018-11-11T20:30:22.349Z,56.23
2018-11-11T20:32:51.155Z,56.01
2018-11-11T20:35:21.162Z,56.03
2018-11-11T20:37:49.913Z,56.90
2018-11-11T20:40:19.827Z,56.14
2018-11-11T20:42:49.043Z,56.45
2018-11-11T20:45:18.941Z,56.64
2018-11-11T20:47:48.596Z,56.24
2018-11-11T20:50:19.634Z,56.60
2018-11-11T20:52:51.509Z,57.07
2018-11-11T20:55:21.613Z,56.56
2018-11-11T20:57:50.561Z,56.62
2018-11-11T21:00:21.224Z,56.95
2018-11-11T21:02:49.988Z,56.83
2018-11-11T21:05:19.847Z,56.42
2018-11-11T21:07:48.734Z,56.88
2018-11-11T21:10:18.629Z,56.90
2018-11-11T21:12:47.342Z,56.66
2018-11-11T21:15:17.337Z,56.55
2018-11-11T21:17:46.506Z,56.80
2018-11-11T21:20:16.451Z,56.87
2018-11-11T21:22:45.180Z,57.45
2018-11-11T21:25:14.157Z,57.20
2018-11-11T21:27:43.828Z,57.53
2018-11-11T21:30:15.904Z,57.47
2018-11-11T21:32:44.379Z,57.10
2018-11-11T21:35:12.909Z,57.29
2018-11-11T21:37:41.974Z,57.29
2018-11-11T21:40:14.136Z,57.24
2018-11-11T21:42:43.297Z,56.90
2018-11-11T21:45:13.061Z,57.54
2018-11-11T21:47:42.117Z,57.10
2018-11-11T21:50:12.594Z,57.54
2018-11-11T21:52:41.986Z,57.73
2018-11-11T21:55:10.587Z,57.00
2018-11-11T21:57:39.067Z,57.33
2018-11-11T22:00:10.809Z,57.85
2018-11-11T22:02:39.593Z,57.31
2018-11-11T22:05:09.939Z,57.34
2018-11-11T22:07:45.152Z,57.60
2018-11-11T22:10:14.281Z,57.07
2018-11-11T22:12:42.745Z,57.90
2018-11-11T22:15:29.775Z,57.11
2018-11-11T22:18:00.304Z,57.44
2018-11-11T22:20:29.161Z,57.53
2018-11-11T22:22:57.651Z,57.74
2018-11-11T22:25:26.059Z,57.50
2018-11-11T22:27:55.433Z,57.51
2018-11-11T22:30:24.049Z,57.59
2018-11-11T22:32:52.487Z,58.06
2018-11-11T22:35:21.051Z,57.91
2018-11-11T22:37:49.539Z,57.66
2018-11-11T22:40:18.054Z,58.19
2018-11-11T22:42:46.509Z,58.13
2018-11-11T22:45:15.415Z,57.46
2018-11-11T22:47:43.917Z,57.96
2018-11-11T22:50:14.782Z,58.13
2018-11-11T22:52:43.342Z,57.55
2018-11-11T22:55:11.996Z,57.51
2018-11-11T22:57:41.127Z,58.26
2018-11-11T23:00:18.288Z,57.99
2018-11-11T23:02:47.226Z,57.89
2018-11-11T23:05:16.786Z,58.50
2018-11-11T23:07:45.564Z,58.45
2018-11-11T23:10:14.132Z,57.99
2018-11-11T23:12:42.780Z,58.21
2018-11-11T23:15:12.241Z,57.99
2018-11-11T23:17:40.918Z,58.28
2018-11-11T23:20:12.371Z,58.62
2018-11-11T23:22:41.088Z,57.87
2018-11-11T23:25:11.594Z,57.83
2018-11-11T23:27:40.062Z,58.52
2018-11-11T23:30:13.408Z,57.78
2018-11-11T23:32:42.114Z,58.40
2018-11-11T23:35:10.857Z,58.64
2018-11-11T23:37:39.984Z,58.13
2018-11-11T23:40:10.340Z,57.98
2018-11-11T23:42:39.300Z,58.05
2018-11-11T23:45:08.059Z,58.50
2018-11-11T23:47:36.853Z,58.55
2018-11-11T23:50:08.800Z,58.06
2018-11-11T23:52:37.442Z,58.35
2018-11-11T23:55:08.339Z,58.52
2018-11-11T23:57:36.836Z,58.38
